createdAt,value
2018-05-02T00:00:45.994Z,23.3
2018-05-02T00:01:36.377Z,23.3
2018-05-02T00:02:25.792Z,23.3
2018-05-02T00:03:16.517Z,23.3
2018-05-02T00:04:06.503Z,23.3
2018-05-02T00:04:56.877Z,23.3
2018-05-02T00:05:46.671Z,23.3
2018-05-02T00:06:36.802Z,23.3
2018-05-02T00:07:26.944Z,23.3
2018-05-02T00:08:16.664Z,23.3
2018-05-02T00:09:07.201Z,23.3
2018-05-02T00:09:56.686Z,23.3
2018-05-02T00:10:47.170Z,23.3
2018-05-02T00:11:37.127Z,23.3
2018-05-02T00:12:26.608Z,23.3
2018-05-02T00:13:17.237Z,23.3
2018-05-02T00:14:07.629Z,23.3
2018-05-02T00:14:56.956Z,23.3
2018-05-02T00:15:47.763Z,23.3
2018-05-02T00:16:37.751Z,23.3
2018-05-02T00:17:27.016Z,23.3
2018-05-02T00:18:18.429Z,23.3
2018-05-02T00:19:07.113Z,23.3
2018-05-02T00:19:57.189Z,23.3
2018-05-02T00:20:47.560Z,23.3
2018-05-02T00:21:37.604Z,23.3
2018-05-02T00:22:28.590Z,23.3
2018-05-02T00:23:17.925Z,23.3
2018-05-02T00:24:08.148Z,23.3
2018-05-02T00:24:57.594Z,23.3
2018-05-02T00:25:47.631Z,23.3
2018-05-02T00:26:38.826Z,23.3
2018-05-02T00:27:27.164Z,23.3
2018-05-02T00:28:17.077Z,23.3
2018-05-02T00:29:07.922Z,23.3
2018-05-02T00:29:57.654Z,23.3
2018-05-02T00:30:48.898Z,23.3
2018-05-02T00:31:38.719Z,23.3
2018-05-02T00:32:28.993Z,23.3
2018-05-02T00:33:17.372Z,23.3
2018-05-02T00:34:10.735Z,23.3
2018-05-02T00:34:58.077Z,23.3
2018-05-02T00:35:48.394Z,23.3
2018-05-02T00:36:39.342Z,23.3
2018-05-02T00:37:28.842Z,23.3
2018-05-02T00:38:18.427Z,23.3
2018-05-02T00:39:08.684Z,23.3
2018-05-02T00:39:59.599Z,23.3
2018-05-02T00:40:49.419Z,23.3
2018-05-02T00:41:39.897Z,23.3
2018-05-02T00:42:29.815Z,23.3
2018-05-02T00:43:19.273Z,23.3
2018-05-02T00:44:09.663Z,23.3
2018-05-02T00:45:00.428Z,23.3
2018-05-02T00:45:50.097Z,23.3
2018-05-02T00:46:39.466Z,23.3
2018-05-02T00:47:29.978Z,23.3
2018-05-02T00:48:20.016Z,23.3
2018-05-02T00:49:10.041Z,23.3
2018-05-02T00:49:59.947Z,23.3
2018-05-02T00:50:49.580Z,23.3
2018-05-02T00:51:39.362Z,23.3
2018-05-02T00:52:30.020Z,23.3
2018-05-02T00:53:20.094Z,23.3
2018-05-02T00:54:10.121Z,23.3
2018-05-02T00:55:00.172Z,23.3
2018-05-02T00:55:49.994Z,23.3
2018-05-02T00:56:39.961Z,23.3
2018-05-02T00:57:30.763Z,23.3
2018-05-02T00:58:20.176Z,23.3
2018-05-02T00:59:10.764Z,23.3
2018-05-02T01:00:00.583Z,23.3
2018-05-02T01:00:50.101Z,23.3
2018-05-02T01:01:40.735Z,23.3
2018-05-02T01:02:31.156Z,23.3
2018-05-02T01:03:21.181Z,23.3
2018-05-02T01:04:11.258Z,23.3
2018-05-02T01:05:00.408Z,23.3
2018-05-02T01:05:51.171Z,23.3
2018-05-02T01:06:39.972Z,23.3
2018-05-02T01:07:31.986Z,23.3
2018-05-02T01:08:20.675Z,23.3
2018-05-02T01:09:10.690Z,23.3
2018-05-02T01:10:01.343Z,23.3
2018-05-02T01:10:51.432Z,23.3
2018-05-02T01:11:42.093Z,23.3
2018-05-02T01:12:32.336Z,23.3
2018-05-02T01:13:21.564Z,23.3
2018-05-02T01:14:11.180Z,23.3
2018-05-02T01:15:01.440Z,23.3
2018-05-02T01:15:52.136Z,23.3
2018-05-02T01:16:42.143Z,23.3
2018-05-02T01:17:30.838Z,23.3
2018-05-02T01:18:21.729Z,23.3
2018-05-02T01:19:12.357Z,23.3
2018-05-02T01:20:02.384Z,23.3
2018-05-02T01:20:52.835Z,23.3
2018-05-02T01:21:42.513Z,23.3
2018-05-02T01:22:32.309Z,23.3
2018-05-02T01:23:22.650Z,23.3
2018-05-02T01:24:13.332Z,23.3
2018-05-02T01:25:02.218Z,23.3
2018-05-02T01:25:53.112Z,23.3
2018-05-02T01:26:42.916Z,23.3
2018-05-02T01:27:32.207Z,23.3
2018-05-02T01:28:22.635Z,23.3
2018-05-02T01:29:12.621Z,23.3
2018-05-02T01:30:03.080Z,23.3
2018-05-02T01:30:52.155Z,23.3
2018-05-02T01:31:43.357Z,23.3
2018-05-02T01:32:33.900Z,23.3
2018-05-02T01:33:23.403Z,23.3
2018-05-02T01:34:13.021Z,23.3
2018-05-02T01:35:03.563Z,23.3
2018-05-02T01:35:53.348Z,23.3
2018-05-02T01:36:43.957Z,23.3
2018-05-02T01:37:33.467Z,23.3
2018-05-02T01:38:23.531Z,23.3
2018-05-02T01:39:13.099Z,23.3
2018-05-02T01:40:03.093Z,23.3
2018-05-02T01:40:54.550Z,23.3
2018-05-02T01:41:43.829Z,23.3
2018-05-02T01:42:34.372Z,23.3
2018-05-02T01:43:24.788Z,23.3
2018-05-02T01:44:13.947Z,23.3
2018-05-02T01:45:04.356Z,23.3
2018-05-02T01:45:54.448Z,23.3
2018-05-02T01:46:44.558Z,23.3
2018-05-02T01:47:33.694Z,23.3
2018-05-02T01:48:24.332Z,23.3
2018-05-02T01:49:13.628Z,23.3
2018-05-02T01:50:04.461Z,23.3
2018-05-02T01:50:54.282Z,23.3
2018-05-02T01:51:44.653Z,23.3
2018-05-02T01:52:34.605Z,23.3
2018-05-02T01:53:24.992Z,23.3
2018-05-02T01:54:14.860Z,23.3
2018-05-02T01:55:04.065Z,23.3
2018-05-02T01:55:54.349Z,23.3
2018-05-02T01:56:45.230Z,23.3
2018-05-02T01:57:35.429Z,23.3
2018-05-02T01:58:25.098Z,23.3
2018-05-02T01:59:15.248Z,23.3
2018-05-02T02:00:04.237Z,23.3
2018-05-02T02:00:55.367Z,23.3
2018-05-02T02:01:45.522Z,23.3
2018-05-02T02:02:34.366Z,23.3
2018-05-02T02:03:25.018Z,23.3
2018-05-02T02:04:15.824Z,23.3
2018-05-02T02:05:05.912Z,23.3
2018-05-02T02:05:55.970Z,23.3
2018-05-02T02:06:46.659Z,23.3
2018-05-02T02:07:35.802Z,23.3
2018-05-02T02:08:26.168Z,23.3
2018-05-02T02:09:15.667Z,23.3
2018-05-02T02:10:05.742Z,23.3
2018-05-02T02:10:55.878Z,23.3
2018-05-02T02:11:45.912Z,23.3
2018-05-02T02:12:36.496Z,23.3
2018-05-02T02:13:26.027Z,23.3
2018-05-02T02:14:16.874Z,23.3
2018-05-02T02:15:06.413Z,23.3
2018-05-02T02:15:56.192Z,23.3
2018-05-02T02:16:46.568Z,23.3
2018-05-02T02:17:37.193Z,23.3
2018-05-02T02:18:26.473Z,23.3
2018-05-02T02:19:16.697Z,23.3
2018-05-02T02:20:07.349Z,23.3
2018-05-02T02:20:56.531Z,23.3
2018-05-02T02:21:46.419Z,23.3
2018-05-02T02:22:36.956Z,23.3
2018-05-02T02:23:27.019Z,23.3
2018-05-02T02:24:16.910Z,23.3
2018-05-02T02:25:07.236Z,23.3
2018-05-02T02:25:56.983Z,23.3
2018-05-02T02:26:47.673Z,23.3
2018-05-02T02:27:37.979Z,23.3
2018-05-02T02:28:26.879Z,23.3
2018-05-02T02:29:18.079Z,23.3
2018-05-02T02:30:07.601Z,23.3
2018-05-02T02:30:58.012Z,23.3
2018-05-02T02:31:46.923Z,23.3
2018-05-02T02:32:38.066Z,23.3
2018-05-02T02:33:27.883Z,23.3
2018-05-02T02:34:17.032Z,23.3
2018-05-02T02:35:07.985Z,23.3
2018-05-02T02:35:58.562Z,23.3
2018-05-02T02:36:47.838Z,23.3
2018-05-02T02:37:37.872Z,23.3
2018-05-02T02:38:28.816Z,23.3
2018-05-02T02:39:18.047Z,23.3
2018-05-02T02:40:08.750Z,23.3
2018-05-02T02:40:57.860Z,23.3
2018-05-02T02:41:48.772Z,23.3
2018-05-02T02:42:38.253Z,23.3
2018-05-02T02:43:28.658Z,23.3
2018-05-02T02:44:19.524Z,23.3
2018-05-02T02:45:08.804Z,23.3
2018-05-02T02:45:58.310Z,23.3
2018-05-02T02:46:48.934Z,23.3
2018-05-02T02:47:38.731Z,23.3
2018-05-02T02:48:28.729Z,23.3
2018-05-02T02:49:18.263Z,23.3
2018-05-02T02:50:08.405Z,23.3
2018-05-02T02:50:58.947Z,23.2
2018-05-02T02:51:49.194Z,23.2
2018-05-02T02:52:38.623Z,23.2
2018-05-02T02:53:28.930Z,23.3
2018-05-02T02:54:19.499Z,23.3
2018-05-02T02:55:09.089Z,23.3
2018-05-02T02:55:58.845Z,23.3
2018-05-02T02:56:49.219Z,23.3
2018-05-02T02:57:39.222Z,23.3
2018-05-02T02:58:29.594Z,23.3
2018-05-02T02:59:20.394Z,23.3
2018-05-02T03:00:09.732Z,23.3
2018-05-02T03:00:59.013Z,23.3
2018-05-02T03:01:49.274Z,23.3
2018-05-02T03:02:39.622Z,23.2
2018-05-02T03:03:29.715Z,23.3
2018-05-02T03:04:20.099Z,23.3
2018-05-02T03:05:09.596Z,23.3
2018-05-02T03:06:00.169Z,23.3
2018-05-02T03:06:49.385Z,23.2
2018-05-02T03:07:39.123Z,23.3
2018-05-02T03:08:30.107Z,23.2
2018-05-02T03:09:20.475Z,23.2
2018-05-02T03:10:10.204Z,23.3
2018-05-02T03:11:00.300Z,23.2
2018-05-02T03:11:50.337Z,23.2
2018-05-02T03:12:40.450Z,23.2
2018-05-02T03:13:30.430Z,23.3
2018-05-02T03:14:19.732Z,23.3
2018-05-02T03:15:10.043Z,23.2
2018-05-02T03:16:00.989Z,23.2
2018-05-02T03:16:51.329Z,23.2
2018-05-02T03:17:41.032Z,23.2
2018-05-02T03:18:28.835Z,23.2
2018-05-02T03:19:21.715Z,23.2
2018-05-02T03:20:11.833Z,23.2
2018-05-02T03:21:01.498Z,23.2
2018-05-02T03:21:51.897Z,23.2
2018-05-02T03:22:41.310Z,23.2
2018-05-02T03:23:31.267Z,23.2
2018-05-02T03:24:21.588Z,23.2
2018-05-02T03:25:11.335Z,23.2
2018-05-02T03:26:01.825Z,23.2
2018-05-02T03:26:52.884Z,23.3
2018-05-02T03:27:42.591Z,23.3
2018-05-02T03:28:32.312Z,23.2
2018-05-02T03:29:22.200Z,23.2
2018-05-02T03:30:11.332Z,23.2
2018-05-02T03:31:02.557Z,23.2
2018-05-02T03:31:52.365Z,23.2
2018-05-02T03:32:42.444Z,23.2
2018-05-02T03:33:32.172Z,23.2
2018-05-02T03:34:22.783Z,23.2
2018-05-02T03:35:12.007Z,23.2
2018-05-02T03:36:02.198Z,23.2
2018-05-02T03:36:51.985Z,23.2
2018-05-02T13:28:47.433Z,23.8
2018-05-02T13:29:37.788Z,23.8
2018-05-02T13:30:28.428Z,23.8
2018-05-02T13:31:17.380Z,23.8
2018-05-02T13:32:07.963Z,23.8
2018-05-02T13:32:57.516Z,23.8
2018-05-02T13:33:48.161Z,23.8
2018-05-02T13:34:38.173Z,23.8
2018-05-02T13:35:27.685Z,23.8
2018-05-02T13:36:18.355Z,23.8
2018-05-02T13:37:08.253Z,23.8
2018-05-02T13:37:58.957Z,23.8
2018-05-02T13:38:48.563Z,23.8
2018-05-02T13:39:39.096Z,23.8
2018-05-02T13:40:28.984Z,23.8
2018-05-02T13:41:17.850Z,23.8
2018-05-02T13:42:07.991Z,23.8
2018-05-02T13:42:59.457Z,23.8
2018-05-02T13:43:49.442Z,23.8
2018-05-02T13:44:39.418Z,23.9
2018-05-02T13:45:28.789Z,23.8
2018-05-02T13:46:19.062Z,23.8
2018-05-02T13:47:09.384Z,23.8
2018-05-02T13:47:59.218Z,23.9
2018-05-02T13:48:50.286Z,23.8
2018-05-02T13:49:39.391Z,23.8
2018-05-02T13:50:29.724Z,23.9
2018-05-02T13:51:19.566Z,23.8
2018-05-02T13:52:09.911Z,23.8
2018-05-02T13:52:58.511Z,23.9
2018-05-02T13:53:49.890Z,23.9
2018-05-02T13:54:38.207Z,23.8
2018-05-02T13:55:30.189Z,23.9
2018-05-02T13:56:20.156Z,23.9
2018-05-02T13:57:10.074Z,23.8
2018-05-02T13:58:00.112Z,23.9
2018-05-02T13:58:49.695Z,23.9
2018-05-02T13:59:40.459Z,23.9
2018-05-02T14:00:30.281Z,23.8
2018-05-02T14:01:20.177Z,23.9
2018-05-02T14:02:10.166Z,23.9
2018-05-02T14:02:59.991Z,23.8
2018-05-02T14:03:50.795Z,23.9
2018-05-02T14:04:40.937Z,23.8
2018-05-02T14:05:31.268Z,23.9
2018-05-02T14:06:20.945Z,23.9
2018-05-02T14:07:10.018Z,23.9
2018-05-02T14:08:00.309Z,23.9
2018-05-02T14:08:50.688Z,23.8
2018-05-02T14:09:41.071Z,23.9
2018-05-02T14:10:31.715Z,23.9
2018-05-02T14:11:21.078Z,23.9
2018-05-02T14:12:10.917Z,23.9
2018-05-02T14:13:01.525Z,23.9
2018-05-02T14:13:50.696Z,23.9
2018-05-02T14:14:42.186Z,23.9
2018-05-02T14:15:31.727Z,23.9
2018-05-02T14:16:20.990Z,23.9
2018-05-02T14:17:11.595Z,23.9
2018-05-02T14:18:01.630Z,23.9
2018-05-02T14:18:51.685Z,23.9
2018-05-02T14:19:41.488Z,23.9
2018-05-02T14:20:31.521Z,23.9
2018-05-02T14:21:22.158Z,23.9
2018-05-02T14:22:12.742Z,23.9
2018-05-02T14:23:02.534Z,23.9
2018-05-02T14:23:51.752Z,23.9
2018-05-02T14:24:42.881Z,23.9
2018-05-02T14:25:32.647Z,23.9
2018-05-02T14:26:22.540Z,23.9
2018-05-02T14:27:12.340Z,23.8
2018-05-02T14:28:02.963Z,23.9
2018-05-02T14:28:52.484Z,23.9
2018-05-02T14:29:42.834Z,23.9
2018-05-02T14:30:32.609Z,23.9
2018-05-02T14:31:21.604Z,23.8
2018-05-02T14:32:12.336Z,23.9
2018-05-02T14:33:03.932Z,23.9
2018-05-02T14:33:53.116Z,23.9
2018-05-02T14:34:42.614Z,23.9
2018-05-02T14:35:32.721Z,23.9
2018-05-02T14:36:23.575Z,23.9
2018-05-02T14:37:13.204Z,23.9
2018-05-02T14:38:03.594Z,23.9
2018-05-02T14:38:53.487Z,23.9
2018-05-02T14:39:43.679Z,23.9
2018-05-02T14:40:33.163Z,23.9
2018-05-02T14:41:23.458Z,23.8
2018-05-02T14:42:13.539Z,23.9
2018-05-02T14:43:04.173Z,23.9
2018-05-02T14:43:54.198Z,23.9
2018-05-02T14:44:43.229Z,23.9
2018-05-02T14:45:34.598Z,23.9
2018-05-02T14:46:24.128Z,23.9
2018-05-02T14:47:14.549Z,23.9
2018-05-02T14:48:04.360Z,23.9
2018-05-02T14:48:54.323Z,23.9
2018-05-02T14:49:43.834Z,23.8
2018-05-02T14:50:34.188Z,23.9
2018-05-02T14:51:24.779Z,23.9
2018-05-02T14:52:13.170Z,23.8
2018-05-02T14:53:03.843Z,23.9
2018-05-02T14:53:54.475Z,23.9
2018-05-02T14:54:45.131Z,23.9
2018-05-02T14:55:35.098Z,23.9
2018-05-02T14:56:25.414Z,23.9
2018-05-02T14:57:14.967Z,23.9
2018-05-02T14:58:05.700Z,23.9
2018-05-02T14:58:55.369Z,23.9
2018-05-02T14:59:45.418Z,23.9
2018-05-02T15:00:34.978Z,23.9
2018-05-02T15:01:26.043Z,23.9
2018-05-02T15:02:17.710Z,23.8
2018-05-02T15:03:05.763Z,23.9
2018-05-02T15:03:55.489Z,23.9
2018-05-02T15:04:45.783Z,23.9
2018-05-02T15:05:35.951Z,23.9
2018-05-02T15:06:25.646Z,23.9
2018-05-02T15:07:16.032Z,23.9
2018-05-02T15:08:05.308Z,23.9
2018-05-02T15:08:56.133Z,23.8
2018-05-02T15:09:46.220Z,23.9
2018-05-02T15:10:36.516Z,23.9
2018-05-02T15:11:26.038Z,23.9
2018-05-02T15:12:16.113Z,23.8
2018-05-02T15:13:06.761Z,23.9
2018-05-02T15:13:54.855Z,23.9
2018-05-02T15:14:46.640Z,23.9
2018-05-02T15:15:35.622Z,23.9
2018-05-02T15:16:26.197Z,23.9
2018-05-02T15:17:16.549Z,23.8
2018-05-02T15:18:07.838Z,23.8
2018-05-02T15:18:56.919Z,23.8
2018-05-02T15:19:46.443Z,23.8
2018-05-02T15:20:37.110Z,23.8
2018-05-02T15:21:26.307Z,23.8
2018-05-02T15:22:17.242Z,23.8
2018-05-02T15:23:07.000Z,23.9
2018-05-02T15:23:56.290Z,23.9
2018-05-02T15:24:48.404Z,23.9
2018-05-02T15:25:36.076Z,23.8
2018-05-02T15:26:27.267Z,23.8
2018-05-02T15:27:17.586Z,23.9
2018-05-02T15:28:07.876Z,23.8
2018-05-02T15:28:57.421Z,23.8
2018-05-02T15:29:47.264Z,23.8
2018-05-02T15:30:37.757Z,23.8
2018-05-02T15:31:27.711Z,23.9
2018-05-02T15:32:17.789Z,23.9
2018-05-02T15:33:07.267Z,23.8
2018-05-02T15:33:57.540Z,23.9
2018-05-02T15:34:46.211Z,23.9
2018-05-02T15:35:38.439Z,23.9
2018-05-02T15:36:27.453Z,23.9
2018-05-02T15:37:17.795Z,23.9
2018-05-02T15:38:08.498Z,23.8
2018-05-02T15:38:58.765Z,23.8
2018-05-02T15:39:48.008Z,23.8
2018-05-02T15:40:37.819Z,23.9
2018-05-02T15:41:28.469Z,23.9
2018-05-02T15:42:17.698Z,23.9
2018-05-02T15:43:08.233Z,23.8
2018-05-02T15:43:58.990Z,23.9
2018-05-02T15:44:48.342Z,23.8
2018-05-02T15:45:38.467Z,23.8
2018-05-02T15:46:29.149Z,23.9
2018-05-02T15:47:18.629Z,23.8
2018-05-02T15:48:09.091Z,23.8
2018-05-02T15:48:59.070Z,23.9
2018-05-02T15:49:48.795Z,23.8
2018-05-02T15:50:39.169Z,23.8
2018-05-02T15:51:29.547Z,23.9
2018-05-02T15:52:18.854Z,23.9
2018-05-02T15:53:09.897Z,23.9
2018-05-02T15:53:59.452Z,23.9
2018-05-02T15:54:49.537Z,23.8
2018-05-02T15:55:38.951Z,23.9
2018-05-02T15:56:28.336Z,23.9
2018-05-02T15:57:19.141Z,23.8
2018-05-02T15:58:12.474Z,23.9
2018-05-02T15:59:00.122Z,23.9
2018-05-02T15:59:49.582Z,23.8
2018-05-02T16:00:40.461Z,23.8
2018-05-02T16:01:30.552Z,23.8
2018-05-02T16:02:20.047Z,23.9
2018-05-02T16:03:10.177Z,23.8
2018-05-02T16:04:00.584Z,23.8
2018-05-02T16:04:49.389Z,23.8
2018-05-02T16:05:40.432Z,23.9
2018-05-02T16:06:30.425Z,23.8
2018-05-02T16:07:19.145Z,23.8
2018-05-02T16:08:10.284Z,23.8
2018-05-02T16:09:00.361Z,23.8
2018-05-02T16:09:51.247Z,23.8
2018-05-02T16:10:41.189Z,23.8
2018-05-02T16:11:30.652Z,23.8
2018-05-02T16:12:20.320Z,23.8
2018-05-02T16:13:10.697Z,23.8
2018-05-02T16:13:59.584Z,23.9
2018-05-02T16:14:51.442Z,23.8
2018-05-02T16:15:40.889Z,23.8
2018-05-02T16:16:32.819Z,23.8
2018-05-02T16:17:21.304Z,23.8
2018-05-02T16:18:11.409Z,23.9
2018-05-02T16:19:00.840Z,23.9
2018-05-02T16:19:51.225Z,23.8
2018-05-02T16:20:41.539Z,23.8
2018-05-02T16:21:32.132Z,23.8
2018-05-02T16:22:22.209Z,23.8
2018-05-02T16:23:11.787Z,23.8
2018-05-02T16:24:01.186Z,23.8
2018-05-02T16:24:52.481Z,23.8
2018-05-02T16:25:41.670Z,23.9
2018-05-02T16:26:31.413Z,23.8
2018-05-02T16:27:22.242Z,23.8
2018-05-02T16:28:12.387Z,23.8
2018-05-02T16:29:01.755Z,23.8
2018-05-02T16:29:52.219Z,23.8
2018-05-02T16:30:42.550Z,23.8
2018-05-02T16:31:32.641Z,23.8
2018-05-02T16:32:22.456Z,23.8
2018-05-02T16:33:13.549Z,23.8
2018-05-02T16:34:02.824Z,23.8
2018-05-02T16:34:52.593Z,23.8
2018-05-02T16:35:42.679Z,23.8
2018-05-02T16:36:32.559Z,23.8
2018-05-02T16:37:21.988Z,23.8
2018-05-02T16:38:12.376Z,23.8
2018-05-02T16:39:03.049Z,23.8
2018-05-02T16:39:51.976Z,23.8
2018-05-02T16:40:43.695Z,23.8
2018-05-02T16:41:33.517Z,23.8
2018-05-02T16:42:23.215Z,23.8
2018-05-02T16:43:12.455Z,23.8
2018-05-02T16:44:02.602Z,23.8
2018-05-02T16:44:53.725Z,23.8
2018-05-02T16:45:43.475Z,23.8
2018-05-02T16:46:33.268Z,23.8
2018-05-02T16:47:23.088Z,23.8
2018-05-02T16:48:14.023Z,23.8
2018-05-02T16:49:03.460Z,23.8
2018-05-02T16:49:53.237Z,23.8
2018-05-02T16:50:44.175Z,23.8
2018-05-02T16:51:33.742Z,23.8
2018-05-02T16:52:24.282Z,23.8
2018-05-02T16:53:12.687Z,23.8
2018-05-02T16:54:03.567Z,23.8
2018-05-02T16:54:53.110Z,23.8
2018-05-02T16:55:43.386Z,23.8
2018-05-02T16:56:34.108Z,23.8
2018-05-02T16:57:24.197Z,23.8
2018-05-02T16:58:13.929Z,23.8
2018-05-02T16:59:04.780Z,23.8
2018-05-02T16:59:54.929Z,23.8
2018-05-02T17:00:45.215Z,23.8
2018-05-02T17:01:34.982Z,23.8
2018-05-02T17:02:24.988Z,23.8
2018-05-02T17:03:14.650Z,23.8
2018-05-02T17:04:05.790Z,23.8
2018-05-02T17:04:55.592Z,23.8
2018-05-02T17:05:44.459Z,23.8
2018-05-02T17:06:33.958Z,23.8
2018-05-02T17:07:24.339Z,23.8
2018-05-02T17:08:15.212Z,23.8
2018-05-02T17:09:04.230Z,23.8
2018-05-02T17:09:55.481Z,23.8
2018-05-02T17:10:45.694Z,23.8
2018-05-02T17:11:35.480Z,23.8
2018-05-02T17:12:24.778Z,23.8
2018-05-02T17:13:15.151Z,23.8
2018-05-02T17:14:05.984Z,23.8
2018-05-02T17:14:55.201Z,23.8
2018-05-02T17:15:45.246Z,23.8
2018-05-02T17:16:35.702Z,23.8
2018-05-02T17:17:26.491Z,23.8
2018-05-02T17:18:16.210Z,23.8
2018-05-02T17:19:06.731Z,23.8
2018-05-02T17:19:56.145Z,23.8
2018-05-02T17:20:45.612Z,23.8
2018-05-02T17:21:36.846Z,23.8
2018-05-02T17:22:28.175Z,23.8
2018-05-02T17:23:16.122Z,23.8
2018-05-02T17:24:05.434Z,23.7
2018-05-02T17:24:56.293Z,23.8
2018-05-02T17:25:46.296Z,23.8
2018-05-02T17:26:36.599Z,23.7
2018-05-02T17:27:26.714Z,23.8
2018-05-02T17:28:16.480Z,23.7
2018-05-02T17:29:06.006Z,23.7
2018-05-02T17:29:56.962Z,23.7
2018-05-02T17:30:46.215Z,23.7
2018-05-02T17:31:36.785Z,23.7
2018-05-02T17:32:26.345Z,23.7
2018-05-02T17:33:17.406Z,23.7
2018-05-02T17:34:06.124Z,23.7
2018-05-02T17:34:57.326Z,23.7
2018-05-02T17:35:47.371Z,23.7
2018-05-02T17:36:37.926Z,23.7
2018-05-02T17:37:27.790Z,23.7
2018-05-02T17:38:17.543Z,23.7
2018-05-02T17:39:08.149Z,23.7
2018-05-02T17:39:57.728Z,23.7
2018-05-02T17:40:47.955Z,23.7
2018-05-02T17:41:37.610Z,23.7
2018-05-02T17:42:27.291Z,23.7
2018-05-02T17:43:18.017Z,23.7
2018-05-02T17:44:07.462Z,23.7
2018-05-02T17:44:57.796Z,23.7
2018-05-02T17:45:48.459Z,23.6
2018-05-02T17:46:39.333Z,23.7
2018-05-02T17:47:27.665Z,23.7
2018-05-02T17:48:16.142Z,23.7
2018-05-02T17:49:06.814Z,23.7
2018-05-02T17:49:57.442Z,23.7
2018-05-02T17:50:47.000Z,23.6
2018-05-02T17:51:36.360Z,23.6
2018-05-02T17:52:28.658Z,23.6
2018-05-02T17:53:17.391Z,23.7
2018-05-02T17:54:07.847Z,23.6
2018-05-02T17:54:57.821Z,23.6
2018-05-02T17:55:47.908Z,23.6
2018-05-02T17:56:38.210Z,23.6
2018-05-02T17:57:28.800Z,23.6
2018-05-02T17:58:18.863Z,23.6
2018-05-02T17:59:08.607Z,23.6
2018-05-02T17:59:59.459Z,23.6
2018-05-02T18:00:49.291Z,23.6
2018-05-02T18:01:39.688Z,23.6
2018-05-02T18:02:29.665Z,23.6
2018-05-02T18:03:19.494Z,23.6
2018-05-02T18:04:09.811Z,23.6
2018-05-02T18:04:59.360Z,23.6
2018-05-02T18:05:50.256Z,23.6
2018-05-02T18:06:39.679Z,23.6
2018-05-02T18:07:29.868Z,23.6
2018-05-02T18:08:19.016Z,23.6
2018-05-02T18:09:10.250Z,23.6
2018-05-02T18:10:00.216Z,23.6
2018-05-02T18:10:50.342Z,23.6
2018-05-02T18:11:40.657Z,23.6
2018-05-02T18:12:29.866Z,23.6
2018-05-02T18:13:20.766Z,23.6
2018-05-02T18:14:09.793Z,23.6
2018-05-02T18:15:00.399Z,23.6
2018-05-02T18:15:50.475Z,23.6
2018-05-02T18:16:41.041Z,23.6
2018-05-02T18:17:31.181Z,23.6
2018-05-02T18:18:21.165Z,23.6
2018-05-02T18:19:10.955Z,23.6
2018-05-02T18:20:01.075Z,23.6
2018-05-02T18:20:50.576Z,23.6
2018-05-02T18:21:41.749Z,23.6
2018-05-02T18:22:30.972Z,23.6
2018-05-02T18:23:19.888Z,23.6
2018-05-02T18:24:10.797Z,23.6
2018-05-02T18:25:00.404Z,23.6
2018-05-02T18:25:50.937Z,23.6
2018-05-02T18:26:39.666Z,23.6
2018-05-02T18:27:30.424Z,23.6
2018-05-02T18:28:21.113Z,23.6
2018-05-02T18:29:11.001Z,23.6
2018-05-02T18:30:01.366Z,23.6
2018-05-02T18:30:51.112Z,23.6
2018-05-02T18:31:41.163Z,23.6
2018-05-02T18:32:31.382Z,23.6
2018-05-02T18:33:21.091Z,23.6
2018-05-02T18:34:11.966Z,23.6
2018-05-02T18:35:02.218Z,23.6
2018-05-02T18:35:51.740Z,23.6
2018-05-02T18:36:43.055Z,23.6
2018-05-02T18:37:32.092Z,23.6
2018-05-02T18:38:21.975Z,23.6
2018-05-02T18:39:11.944Z,23.6
2018-05-02T18:40:02.522Z,23.6
2018-05-02T18:40:52.455Z,23.6
2018-05-02T18:41:42.165Z,23.6
2018-05-02T18:42:31.927Z,23.6
2018-05-02T18:43:22.850Z,23.6
2018-05-02T18:44:12.584Z,23.6
2018-05-02T18:45:02.930Z,23.6
2018-05-02T18:45:53.049Z,23.6
2018-05-02T18:46:42.911Z,23.6
2018-05-02T18:47:32.852Z,23.6
2018-05-02T18:48:22.907Z,23.6
2018-05-02T18:49:12.730Z,23.6
2018-05-02T18:50:01.930Z,23.6
2018-05-02T18:50:51.862Z,23.6
2018-05-02T18:51:42.930Z,23.6
2018-05-02T18:52:32.748Z,23.6
2018-05-02T18:53:23.516Z,23.6
2018-05-02T18:54:13.706Z,23.6
2018-05-02T18:55:02.908Z,23.6
2018-05-02T18:55:52.665Z,23.5
2018-05-02T18:56:43.427Z,23.6
2018-05-02T18:57:33.423Z,23.6
2018-05-02T18:58:23.510Z,23.6
2018-05-02T18:59:12.668Z,23.6
2018-05-02T19:00:04.194Z,23.6
2018-05-02T19:00:54.474Z,23.6
2018-05-02T19:01:44.066Z,23.5
2018-05-02T19:02:33.859Z,23.6
2018-05-02T19:03:24.057Z,23.6
2018-05-02T19:04:14.219Z,23.6
2018-05-02T19:05:03.701Z,23.6
2018-05-02T19:05:54.074Z,23.6
2018-05-02T19:06:44.700Z,23.6
2018-05-02T19:07:34.456Z,23.6
2018-05-02T19:08:24.504Z,23.6
2018-05-02T19:09:14.366Z,23.6
2018-05-02T19:10:04.672Z,23.6
2018-05-02T19:10:54.704Z,23.6
2018-05-02T19:11:44.991Z,23.6
2018-05-02T19:12:34.791Z,23.6
2018-05-02T19:13:24.885Z,23.6
2018-05-02T19:14:14.696Z,23.5
2018-05-02T19:15:04.767Z,23.6
2018-05-02T19:15:54.546Z,23.6
2018-05-02T19:16:44.946Z,23.6
2018-05-02T19:17:35.194Z,23.6
2018-05-02T19:18:25.213Z,23.6
2018-05-02T19:19:15.293Z,23.6
2018-05-02T19:20:05.363Z,23.6
2018-05-02T19:20:56.049Z,23.6
2018-05-02T19:21:44.989Z,23.6
2018-05-02T19:22:35.867Z,23.6
2018-05-02T19:23:26.176Z,23.6
2018-05-02T19:24:14.935Z,23.6
2018-05-02T19:25:06.035Z,23.6
2018-05-02T19:25:56.171Z,23.6
2018-05-02T19:26:46.213Z,23.6
2018-05-02T19:27:35.980Z,23.5
2018-05-02T19:28:26.067Z,23.6
2018-05-02T19:29:15.793Z,23.6
2018-05-02T19:30:06.786Z,23.6
2018-05-02T19:30:55.939Z,23.6
2018-05-02T19:31:46.013Z,23.6
2018-05-02T19:32:36.409Z,23.6
2018-05-02T19:33:26.211Z,23.6
2018-05-02T19:34:16.335Z,23.5
2018-05-02T19:35:06.028Z,23.6
2018-05-02T19:35:56.617Z,23.5
2018-05-02T19:36:46.789Z,23.6
2018-05-02T19:37:37.031Z,23.6
2018-05-02T19:38:26.275Z,23.6
2018-05-02T19:39:15.187Z,23.6
2018-05-02T19:40:06.979Z,23.6
2018-05-02T19:40:57.184Z,23.5
2018-05-02T19:41:46.314Z,23.6
2018-05-02T19:42:36.559Z,23.6
2018-05-02T19:43:26.307Z,23.6
2018-05-02T19:44:17.817Z,23.6
2018-05-02T19:45:07.438Z,23.5
2018-05-02T19:45:57.381Z,23.6
2018-05-02T19:46:47.190Z,23.6
2018-05-02T19:47:37.042Z,23.6
2018-05-02T19:48:27.994Z,23.6
2018-05-02T19:49:16.815Z,23.6
2018-05-02T19:50:06.929Z,23.6
2018-05-02T19:50:57.497Z,23.6
2018-05-02T19:51:48.179Z,23.6
2018-05-02T19:52:37.904Z,23.6
2018-05-02T19:53:27.998Z,23.6
2018-05-02T19:54:18.047Z,23.6
2018-05-02T19:55:07.851Z,23.6
2018-05-02T19:55:58.253Z,23.5
2018-05-02T19:56:48.215Z,23.5
2018-05-02T19:57:38.391Z,23.6
2018-05-02T19:58:27.848Z,23.6
2018-05-02T19:59:18.396Z,23.6
2018-05-02T20:00:07.391Z,23.5
2018-05-02T20:00:58.588Z,23.6
2018-05-02T20:01:48.057Z,23.6
2018-05-02T20:02:38.423Z,23.5
2018-05-02T20:03:27.978Z,23.5
2018-05-02T20:04:19.362Z,23.5
2018-05-02T20:05:08.885Z,23.5
2018-05-02T20:05:58.941Z,23.5
2018-05-02T20:06:48.431Z,23.5
2018-05-02T20:07:38.903Z,23.5
2018-05-02T20:08:28.569Z,23.5
2018-05-02T20:09:18.638Z,23.5
2018-05-02T20:10:09.343Z,23.5
2018-05-02T20:10:59.432Z,23.5
2018-05-02T20:11:49.817Z,23.5
2018-05-02T20:12:39.468Z,23.5
2018-05-02T20:13:29.280Z,23.5
2018-05-02T20:14:19.107Z,23.5
2018-05-02T20:15:08.905Z,23.5
2018-05-02T20:15:59.452Z,23.5
2018-05-02T20:16:49.547Z,23.5
2018-05-02T20:17:40.507Z,23.5
2018-05-02T20:18:29.944Z,23.5
2018-05-02T20:19:20.785Z,23.5
2018-05-02T20:20:09.518Z,23.5
2018-05-02T20:20:59.813Z,23.6
2018-05-02T20:21:49.875Z,23.5
2018-05-02T20:22:40.588Z,23.5
2018-05-02T20:23:30.597Z,23.5
2018-05-02T20:24:20.096Z,23.5
2018-05-02T20:25:09.948Z,23.5
2018-05-02T20:25:59.340Z,23.5
2018-05-02T20:26:50.847Z,23.5
2018-05-02T20:27:40.934Z,23.5
2018-05-02T20:28:29.541Z,23.5
2018-05-02T20:29:21.107Z,23.5
2018-05-02T20:30:10.036Z,23.5
2018-05-02T20:31:01.454Z,23.5
2018-05-02T20:31:49.809Z,23.5
2018-05-02T20:32:40.955Z,23.5
2018-05-02T20:33:31.046Z,23.5
2018-05-02T20:34:20.079Z,23.5
2018-05-02T20:35:11.231Z,23.5
2018-05-02T20:36:00.470Z,23.4
2018-05-02T20:36:50.247Z,23.4
2018-05-02T20:37:41.693Z,23.5
2018-05-02T20:38:30.901Z,23.5
2018-05-02T20:39:21.287Z,23.5
2018-05-02T20:40:11.935Z,23.4
2018-05-02T20:41:01.180Z,23.4
2018-05-02T20:41:51.999Z,23.4
2018-05-02T20:42:42.388Z,23.4
2018-05-02T20:43:32.200Z,23.4
2018-05-02T20:44:21.694Z,23.4
2018-05-02T20:45:11.703Z,23.4
2018-05-02T20:46:02.145Z,23.4
2018-05-02T20:46:51.025Z,23.4
2018-05-02T20:47:42.943Z,23.4
2018-05-02T20:48:31.735Z,23.4
2018-05-02T20:49:22.839Z,23.4
2018-05-02T20:50:11.889Z,23.4
2018-05-02T20:51:01.682Z,23.4
2018-05-02T20:51:51.370Z,23.4
2018-05-02T20:52:42.046Z,23.4
2018-05-02T20:53:31.199Z,23.4
2018-05-02T20:54:23.628Z,23.4
2018-05-02T20:55:14.874Z,23.4
2018-05-02T20:56:03.260Z,23.4
2018-05-02T20:56:52.265Z,23.4
2018-05-02T20:57:43.033Z,23.4